sensor_id;sensor_type;location;lat;lon;timestamp;P1;durP1;ratioP1;P2;durP2;ratioP2
12707;SDS011;6418;50.824;4.718;2022-07-22T00:01:04;16.73;;;7.10;;
12707;SDS011;6418;50.824;4.718;2022-07-22T00:03:32;17.10;;;6.60;;
12707;SDS011;6418;50.824;4.718;2022-07-22T00:05:59;18.33;;;7.90;;
12707;SDS011;6418;50.824;4.718;2022-07-22T00:08:26;16.17;;;7.13;;
12707;SDS011;6418;50.824;4.718;2022-07-22T00:10:53;16.43;;;7.03;;
12707;SDS011;6418;50.824;4.718;2022-07-22T00:13:20;19.00;;;6.90;;
12707;SDS011;6418;50.824;4.718;2022-07-22T00:15:47;14.87;;;6.60;;
12707;SDS011;6418;50.824;4.718;2022-07-22T00:18:14;18.37;;;7.20;;
12707;SDS011;6418;50.824;4.718;2022-07-22T00:20:42;17.13;;;6.97;;
12707;SDS011;6418;50.824;4.718;2022-07-22T00:23:09;16.67;;;7.37;;
12707;SDS011;6418;50.824;4.718;2022-07-22T00:25:36;18.00;;;7.13;;
12707;SDS011;6418;50.824;4.718;2022-07-22T00:28:03;16.43;;;7.20;;
12707;SDS011;6418;50.824;4.718;2022-07-22T00:30:33;17.00;;;7.23;;
12707;SDS011;6418;50.824;4.718;2022-07-22T00:33:00;14.87;;;7.30;;
12707;SDS011;6418;50.824;4.718;2022-07-22T00:35:27;16.33;;;7.10;;
12707;SDS011;6418;50.824;4.718;2022-07-22T00:37:55;18.10;;;7.13;;
12707;SDS011;6418;50.824;4.718;2022-07-22T00:40:22;15.57;;;7.13;;
12707;SDS011;6418;50.824;4.718;2022-07-22T00:42:49;18.17;;;7.83;;
12707;SDS011;6418;50.824;4.718;2022-07-22T00:45:18;17.63;;;7.50;;
12707;SDS011;6418;50.824;4.718;2022-07-22T00:47:45;14.70;;;7.03;;
12707;SDS011;6418;50.824;4.718;2022-07-22T00:50:12;18.57;;;7.17;;
12707;SDS011;6418;50.824;4.718;2022-07-22T00:52:40;18.67;;;7.30;;
12707;SDS011;6418;50.824;4.718;2022-07-22T00:55:09;18.90;;;7.60;;
12707;SDS011;6418;50.824;4.718;2022-07-22T00:57:36;17.37;;;7.60;;
12707;SDS011;6418;50.824;4.718;2022-07-22T01:00:03;17.70;;;7.20;;
12707;SDS011;6418;50.824;4.718;2022-07-22T01:02:33;17.40;;;6.90;;
12707;SDS011;6418;50.824;4.718;2022-07-22T01:05:00;13.20;;;6.53;;
12707;SDS011;6418;50.824;4.718;2022-07-22T01:07:27;20.23;;;7.43;;
12707;SDS011;6418;50.824;4.718;2022-07-22T01:09:54;16.57;;;7.20;;
12707;SDS011;6418;50.824;4.718;2022-07-22T01:12:22;16.17;;;7.07;;
12707;SDS011;6418;50.824;4.718;2022-07-22T01:14:49;16.50;;;7.10;;
12707;SDS011;6418;50.824;4.718;2022-07-22T01:17:16;22.17;;;7.60;;
12707;SDS011;6418;50.824;4.718;2022-07-22T01:19:43;14.10;;;6.83;;
12707;SDS011;6418;50.824;4.718;2022-07-22T01:22:12;20.33;;;7.37;;
12707;SDS011;6418;50.824;4.718;2022-07-22T01:24:39;14.10;;;7.03;;
12707;SDS011;6418;50.824;4.718;2022-07-22T01:27:06;19.20;;;7.37;;
12707;SDS011;6418;50.824;4.718;2022-07-22T01:29:33;13.37;;;6.90;;
12707;SDS011;6418;50.824;4.718;2022-07-22T01:32:00;16.90;;;7.13;;
12707;SDS011;6418;50.824;4.718;2022-07-22T01:34:27;17.80;;;7.17;;
12707;SDS011;6418;50.824;4.718;2022-07-22T01:36:54;17.30;;;7.23;;
12707;SDS011;6418;50.824;4.718;2022-07-22T01:39:22;17.13;;;7.30;;
12707;SDS011;6418;50.824;4.718;2022-07-22T01:41:49;14.23;;;6.30;;
12707;SDS011;6418;50.824;4.718;2022-07-22T01:44:16;17.47;;;6.83;;
12707;SDS011;6418;50.824;4.718;2022-07-22T01:46:43;18.50;;;6.97;;
12707;SDS011;6418;50.824;4.718;2022-07-22T01:49:10;14.93;;;6.97;;
12707;SDS011;6418;50.824;4.718;2022-07-22T01:51:37;15.20;;;6.73;;
12707;SDS011;6418;50.824;4.718;2022-07-22T01:54:04;15.87;;;7.33;;
12707;SDS011;6418;50.824;4.718;2022-07-22T01:56:32;13.57;;;7.07;;
12707;SDS011;6418;50.824;4.718;2022-07-22T01:58:59;17.80;;;7.73;;
12707;SDS011;6418;50.824;4.718;2022-07-22T02:01:26;18.93;;;7.53;;
12707;SDS011;6418;50.824;4.718;2022-07-22T02:03:53;16.93;;;7.47;;
12707;SDS011;6418;50.824;4.718;2022-07-22T02:06:20;13.97;;;7.27;;
12707;SDS011;6418;50.824;4.718;2022-07-22T02:08:47;18.20;;;7.13;;
12707;SDS011;6418;50.824;4.718;2022-07-22T02:11:14;17.27;;;7.73;;
12707;SDS011;6418;50.824;4.718;2022-07-22T02:13:42;14.40;;;7.23;;
12707;SDS011;6418;50.824;4.718;2022-07-22T02:16:09;16.70;;;7.43;;
12707;SDS011;6418;50.824;4.718;2022-07-22T02:18:36;14.67;;;7.20;;
12707;SDS011;6418;50.824;4.718;2022-07-22T02:21:03;17.70;;;7.50;;
12707;SDS011;6418;50.824;4.718;2022-07-22T02:23:30;18.83;;;7.37;;
12707;SDS011;6418;50.824;4.718;2022-07-22T02:25:56;15.17;;;7.17;;
12707;SDS011;6418;50.824;4.718;2022-07-22T02:28:23;17.87;;;7.43;;
12707;SDS011;6418;50.824;4.718;2022-07-22T02:30:52;15.10;;;7.07;;
12707;SDS011;6418;50.824;4.718;2022-07-22T02:33:19;17.43;;;7.13;;
12707;SDS011;6418;50.824;4.718;2022-07-22T02:35:46;15.73;;;6.97;;
12707;SDS011;6418;50.824;4.718;2022-07-22T02:38:13;17.07;;;7.37;;
12707;SDS011;6418;50.824;4.718;2022-07-22T02:40:39;15.80;;;7.50;;
12707;SDS011;6418;50.824;4.718;2022-07-22T02:43:07;15.40;;;7.37;;
12707;SDS011;6418;50.824;4.718;2022-07-22T02:45:34;18.40;;;7.17;;
12707;SDS011;6418;50.824;4.718;2022-07-22T02:48:02;17.13;;;7.20;;
12707;SDS011;6418;50.824;4.718;2022-07-22T02:50:30;16.97;;;7.67;;
12707;SDS011;6418;50.824;4.718;2022-07-22T02:52:58;16.20;;;6.87;;
12707;SDS011;6418;50.824;4.718;2022-07-22T02:55:25;14.37;;;6.93;;
12707;SDS011;6418;50.824;4.718;2022-07-22T02:57:51;17.47;;;7.30;;
12707;SDS011;6418;50.824;4.718;2022-07-22T03:00:18;15.37;;;6.73;;
12707;SDS011;6418;50.824;4.718;2022-07-22T03:02:45;13.90;;;7.17;;
12707;SDS011;6418;50.824;4.718;2022-07-22T03:05:14;16.00;;;7.30;;
12707;SDS011;6418;50.824;4.718;2022-07-22T03:07:40;15.43;;;6.97;;
12707;SDS011;6418;50.824;4.718;2022-07-22T03:10:07;15.10;;;7.30;;
12707;SDS011;6418;50.824;4.718;2022-07-22T03:12:34;16.80;;;7.10;;
12707;SDS011;6418;50.824;4.718;2022-07-22T03:15:02;18.77;;;7.27;;
12707;SDS011;6418;50.824;4.718;2022-07-22T03:17:32;19.70;;;7.30;;
12707;SDS011;6418;50.824;4.718;2022-07-22T03:20:00;20.10;;;7.63;;
12707;SDS011;6418;50.824;4.718;2022-07-22T03:22:29;17.37;;;7.57;;
12707;SDS011;6418;50.824;4.718;2022-07-22T03:24:56;15.53;;;7.10;;
12707;SDS011;6418;50.824;4.718;2022-07-22T03:27:23;12.07;;;6.40;;
12707;SDS011;6418;50.824;4.718;2022-07-22T03:29:50;15.13;;;6.50;;
12707;SDS011;6418;50.824;4.718;2022-07-22T03:32:16;14.83;;;6.97;;
12707;SDS011;6418;50.824;4.718;2022-07-22T03:34:44;13.37;;;7.20;;
12707;SDS011;6418;50.824;4.718;2022-07-22T03:37:11;17.33;;;7.47;;
12707;SDS011;6418;50.824;4.718;2022-07-22T03:39:39;12.50;;;6.73;;
12707;SDS011;6418;50.824;4.718;2022-07-22T03:42:06;18.90;;;7.30;;
12707;SDS011;6418;50.824;4.718;2022-07-22T03:44:33;15.87;;;7.20;;
12707;SDS011;6418;50.824;4.718;2022-07-22T03:47:00;13.97;;;7.07;;
12707;SDS011;6418;50.824;4.718;2022-07-22T03:49:27;14.53;;;6.30;;
12707;SDS011;6418;50.824;4.718;2022-07-22T03:51:55;13.47;;;6.80;;
12707;SDS011;6418;50.824;4.718;2022-07-22T03:54:22;15.37;;;6.27;;
12707;SDS011;6418;50.824;4.718;2022-07-22T03:56:50;13.40;;;6.63;;
12707;SDS011;6418;50.824;4.718;2022-07-22T03:59:17;14.93;;;7.13;;
12707;SDS011;6418;50.824;4.718;2022-07-22T04:01:44;14.33;;;6.90;;
12707;SDS011;6418;50.824;4.718;2022-07-22T04:04:11;17.13;;;6.83;;
12707;SDS011;6418;50.824;4.718;2022-07-22T04:06:38;14.73;;;7.47;;
12707;SDS011;6418;50.824;4.718;2022-07-22T04:09:05;15.67;;;7.10;;
12707;SDS011;6418;50.824;4.718;2022-07-22T04:11:32;13.80;;;7.17;;
12707;SDS011;6418;50.824;4.718;2022-07-22T04:14:00;16.43;;;7.60;;
12707;SDS011;6418;50.824;4.718;2022-07-22T04:16:27;15.17;;;7.00;;
12707;SDS011;6418;50.824;4.718;2022-07-22T04:18:54;14.77;;;7.20;;
12707;SDS011;6418;50.824;4.718;2022-07-22T04:21:21;13.97;;;6.23;;
12707;SDS011;6418;50.824;4.718;2022-07-22T04:23:48;16.30;;;6.63;;
12707;SDS011;6418;50.824;4.718;2022-07-22T04:26:15;14.93;;;7.63;;
12707;SDS011;6418;50.824;4.718;2022-07-22T04:28:42;17.10;;;7.57;;
12707;SDS011;6418;50.824;4.718;2022-07-22T04:31:10;17.70;;;7.40;;
12707;SDS011;6418;50.824;4.718;2022-07-22T04:33:37;20.10;;;8.40;;
12707;SDS011;6418;50.824;4.718;2022-07-22T04:36:05;17.87;;;7.50;;
12707;SDS011;6418;50.824;4.718;2022-07-22T04:38:32;19.13;;;7.77;;
12707;SDS011;6418;50.824;4.718;2022-07-22T04:40:59;18.10;;;8.00;;
12707;SDS011;6418;50.824;4.718;2022-07-22T04:43:26;16.03;;;7.70;;
12707;SDS011;6418;50.824;4.718;2022-07-22T04:45:53;19.20;;;8.27;;
12707;SDS011;6418;50.824;4.718;2022-07-22T04:48:22;18.67;;;8.30;;
12707;SDS011;6418;50.824;4.718;2022-07-22T04:50:49;18.13;;;8.03;;
12707;SDS011;6418;50.824;4.718;2022-07-22T04:53:16;19.20;;;8.07;;
12707;SDS011;6418;50.824;4.718;2022-07-22T04:55:43;20.77;;;8.37;;
12707;SDS011;6418;50.824;4.718;2022-07-22T04:58:10;20.40;;;8.77;;
12707;SDS011;6418;50.824;4.718;2022-07-22T05:00:37;19.87;;;8.50;;
12707;SDS011;6418;50.824;4.718;2022-07-22T05:03:04;16.63;;;8.27;;
12707;SDS011;6418;50.824;4.718;2022-07-22T05:05:32;22.17;;;8.80;;
12707;SDS011;6418;50.824;4.718;2022-07-22T05:07:59;25.67;;;9.43;;
12707;SDS011;6418;50.824;4.718;2022-07-22T05:10:26;20.67;;;9.27;;
12707;SDS011;6418;50.824;4.718;2022-07-22T05:12:53;21.27;;;9.07;;
12707;SDS011;6418;50.824;4.718;2022-07-22T05:15:20;19.40;;;9.33;;
12707;SDS011;6418;50.824;4.718;2022-07-22T05:17:48;16.97;;;9.10;;
12707;SDS011;6418;50.824;4.718;2022-07-22T05:20:14;19.03;;;9.17;;
12707;SDS011;6418;50.824;4.718;2022-07-22T05:22:43;23.07;;;9.87;;
12707;SDS011;6418;50.824;4.718;2022-07-22T05:25:10;19.00;;;9.03;;
12707;SDS011;6418;50.824;4.718;2022-07-22T05:27:37;25.73;;;11.03;;
12707;SDS011;6418;50.824;4.718;2022-07-22T05:30:04;23.73;;;10.90;;
12707;SDS011;6418;50.824;4.718;2022-07-22T05:32:32;20.97;;;10.33;;
12707;SDS011;6418;50.824;4.718;2022-07-22T05:34:59;21.37;;;10.57;;
12707;SDS011;6418;50.824;4.718;2022-07-22T05:37:26;27.33;;;11.00;;
12707;SDS011;6418;50.824;4.718;2022-07-22T05:39:54;23.53;;;11.63;;
12707;SDS011;6418;50.824;4.718;2022-07-22T05:42:21;27.13;;;12.93;;
12707;SDS011;6418;50.824;4.718;2022-07-22T05:44:48;31.87;;;14.33;;
12707;SDS011;6418;50.824;4.718;2022-07-22T05:47:15;35.67;;;16.17;;
12707;SDS011;6418;50.824;4.718;2022-07-22T05:49:42;32.93;;;15.53;;
12707;SDS011;6418;50.824;4.718;2022-07-22T05:52:09;38.40;;;15.93;;
12707;SDS011;6418;50.824;4.718;2022-07-22T05:54:36;34.93;;;15.43;;
12707;SDS011;6418;50.824;4.718;2022-07-22T05:57:04;34.70;;;15.83;;
12707;SDS011;6418;50.824;4.718;2022-07-22T05:59:33;31.17;;;14.37;;
12707;SDS011;6418;50.824;4.718;2022-07-22T06:02:00;36.13;;;14.83;;
12707;SDS011;6418;50.824;4.718;2022-07-22T06:04:27;32.83;;;14.50;;
12707;SDS011;6418;50.824;4.718;2022-07-22T06:06:54;33.93;;;14.73;;
12707;SDS011;6418;50.824;4.718;2022-07-22T06:09:21;25.93;;;13.77;;
12707;SDS011;6418;50.824;4.718;2022-07-22T06:11:48;28.93;;;14.07;;
12707;SDS011;6418;50.824;4.718;2022-07-22T06:14:16;26.30;;;12.90;;
12707;SDS011;6418;50.824;4.718;2022-07-22T06:16:43;26.20;;;12.40;;
12707;SDS011;6418;50.824;4.718;2022-07-22T06:19:10;23.73;;;12.63;;
12707;SDS011;6418;50.824;4.718;2022-07-22T06:21:36;23.47;;;12.23;;
12707;SDS011;6418;50.824;4.718;2022-07-22T06:24:05;25.33;;;11.67;;
12707;SDS011;6418;50.824;4.718;2022-07-22T06:26:32;24.67;;;11.77;;
12707;SDS011;6418;50.824;4.718;2022-07-22T06:28:59;20.27;;;10.97;;
12707;SDS011;6418;50.824;4.718;2022-07-22T06:31:27;20.40;;;10.27;;
12707;SDS011;6418;50.824;4.718;2022-07-22T06:33:54;19.47;;;9.80;;
12707;SDS011;6418;50.824;4.718;2022-07-22T06:36:21;25.73;;;10.33;;
12707;SDS011;6418;50.824;4.718;2022-07-22T06:38:48;20.47;;;9.60;;
12707;SDS011;6418;50.824;4.718;2022-07-22T06:41:15;21.73;;;9.47;;
12707;SDS011;6418;50.824;4.718;2022-07-22T06:43:44;19.77;;;8.67;;
12707;SDS011;6418;50.824;4.718;2022-07-22T06:46:11;16.63;;;8.63;;
12707;SDS011;6418;50.824;4.718;2022-07-22T06:48:39;20.03;;;9.13;;
12707;SDS011;6418;50.824;4.718;2022-07-22T06:51:06;19.80;;;9.03;;
12707;SDS011;6418;50.824;4.718;2022-07-22T06:53:33;18.90;;;9.30;;
12707;SDS011;6418;50.824;4.718;2022-07-22T06:56:00;16.53;;;9.23;;
12707;SDS011;6418;50.824;4.718;2022-07-22T06:58:27;18.07;;;8.70;;
12707;SDS011;6418;50.824;4.718;2022-07-22T07:00:54;20.50;;;9.23;;
12707;SDS011;6418;50.824;4.718;2022-07-22T07:03:21;18.07;;;8.63;;
12707;SDS011;6418;50.824;4.718;2022-07-22T07:05:51;17.27;;;8.93;;
12707;SDS011;6418;50.824;4.718;2022-07-22T07:08:18;16.10;;;8.17;;
12707;SDS011;6418;50.824;4.718;2022-07-22T07:10:45;16.93;;;8.63;;
12707;SDS011;6418;50.824;4.718;2022-07-22T07:13:13;16.57;;;8.50;;
12707;SDS011;6418;50.824;4.718;2022-07-22T07:15:40;16.33;;;8.37;;
12707;SDS011;6418;50.824;4.718;2022-07-22T07:18:07;14.50;;;7.33;;
12707;SDS011;6418;50.824;4.718;2022-07-22T07:20:34;16.17;;;7.90;;
12707;SDS011;6418;50.824;4.718;2022-07-22T07:23:02;14.50;;;7.23;;
12707;SDS011;6418;50.824;4.718;2022-07-22T07:25:29;14.03;;;7.57;;
12707;SDS011;6418;50.824;4.718;2022-07-22T07:27:56;15.07;;;7.60;;
12707;SDS011;6418;50.824;4.718;2022-07-22T07:30:23;15.17;;;7.40;;
12707;SDS011;6418;50.824;4.718;2022-07-22T07:32:50;15.87;;;7.80;;
12707;SDS011;6418;50.824;4.718;2022-07-22T07:35:17;15.60;;;8.30;;
12707;SDS011;6418;50.824;4.718;2022-07-22T07:37:44;14.17;;;7.27;;
12707;SDS011;6418;50.824;4.718;2022-07-22T07:40:13;13.20;;;7.60;;
12707;SDS011;6418;50.824;4.718;2022-07-22T07:42:40;15.80;;;8.00;;
12707;SDS011;6418;50.824;4.718;2022-07-22T07:45:07;14.30;;;7.77;;
12707;SDS011;6418;50.824;4.718;2022-07-22T07:47:35;14.00;;;7.40;;
12707;SDS011;6418;50.824;4.718;2022-07-22T07:50:02;16.73;;;7.90;;
12707;SDS011;6418;50.824;4.718;2022-07-22T07:52:29;16.10;;;7.47;;
12707;SDS011;6418;50.824;4.718;2022-07-22T07:54:56;17.03;;;7.30;;
12707;SDS011;6418;50.824;4.718;2022-07-22T07:57:25;15.23;;;7.27;;
12707;SDS011;6418;50.824;4.718;2022-07-22T07:59:52;15.00;;;7.33;;
12707;SDS011;6418;50.824;4.718;2022-07-22T08:02:18;14.83;;;7.10;;
12707;SDS011;6418;50.824;4.718;2022-07-22T08:04:45;16.37;;;6.83;;
12707;SDS011;6418;50.824;4.718;2022-07-22T08:07:12;15.23;;;6.97;;
12707;SDS011;6418;50.824;4.718;2022-07-22T08:09:39;17.13;;;6.97;;
12707;SDS011;6418;50.824;4.718;2022-07-22T08:12:06;14.73;;;6.57;;
12707;SDS011;6418;50.824;4.718;2022-07-22T08:14:35;13.93;;;6.37;;
12707;SDS011;6418;50.824;4.718;2022-07-22T08:17:02;13.80;;;6.60;;
12707;SDS011;6418;50.824;4.718;2022-07-22T08:19:29;13.57;;;6.40;;
12707;SDS011;6418;50.824;4.718;2022-07-22T08:21:56;14.37;;;6.70;;
12707;SDS011;6418;50.824;4.718;2022-07-22T08:24:23;14.17;;;6.30;;
12707;SDS011;6418;50.824;4.718;2022-07-22T08:26:50;12.90;;;6.57;;
12707;SDS011;6418;50.824;4.718;2022-07-22T08:29:17;13.53;;;6.40;;
12707;SDS011;6418;50.824;4.718;2022-07-22T08:31:45;12.80;;;6.27;;
12707;SDS011;6418;50.824;4.718;2022-07-22T08:34:12;13.97;;;6.47;;
12707;SDS011;6418;50.824;4.718;2022-07-22T08:36:39;12.13;;;5.80;;
12707;SDS011;6418;50.824;4.718;2022-07-22T08:39:06;13.10;;;5.83;;
12707;SDS011;6418;50.824;4.718;2022-07-22T08:41:34;13.30;;;6.00;;
12707;SDS011;6418;50.824;4.718;2022-07-22T08:44:04;14.70;;;5.63;;
12707;SDS011;6418;50.824;4.718;2022-07-22T08:46:33;11.40;;;5.60;;
12707;SDS011;6418;50.824;4.718;2022-07-22T08:49:01;9.43;;;5.07;;
12707;SDS011;6418;50.824;4.718;2022-07-22T08:51:31;9.67;;;5.10;;
12707;SDS011;6418;50.824;4.718;2022-07-22T08:53:59;12.63;;;5.50;;
12707;SDS011;6418;50.824;4.718;2022-07-22T08:56:26;10.60;;;5.20;;
12707;SDS011;6418;50.824;4.718;2022-07-22T08:58:53;9.77;;;4.93;;
12707;SDS011;6418;50.824;4.718;2022-07-22T09:01:19;10.63;;;5.20;;
12707;SDS011;6418;50.824;4.718;2022-07-22T09:03:47;10.67;;;4.80;;
12707;SDS011;6418;50.824;4.718;2022-07-22T09:06:17;11.13;;;5.17;;
12707;SDS011;6418;50.824;4.718;2022-07-22T09:08:52;11.20;;;5.17;;
12707;SDS011;6418;50.824;4.718;2022-07-22T09:11:20;11.33;;;5.17;;
12707;SDS011;6418;50.824;4.718;2022-07-22T09:13:49;10.13;;;4.80;;
12707;SDS011;6418;50.824;4.718;2022-07-22T09:16:16;11.17;;;4.97;;
12707;SDS011;6418;50.824;4.718;2022-07-22T09:19:03;10.50;;;4.97;;
12707;SDS011;6418;50.824;4.718;2022-07-22T09:21:32;10.80;;;4.95;;
12707;SDS011;6418;50.824;4.718;2022-07-22T09:24:00;10.70;;;4.93;;
12707;SDS011;6418;50.824;4.718;2022-07-22T09:26:31;11.17;;;5.50;;
12707;SDS011;6418;50.824;4.718;2022-07-22T09:28:59;11.70;;;5.05;;
12707;SDS011;6418;50.824;4.718;2022-07-22T09:31:27;10.25;;;5.13;;
12707;SDS011;6418;50.824;4.718;2022-07-22T09:33:55;10.50;;;5.20;;
12707;SDS011;6418;50.824;4.718;2022-07-22T09:36:23;10.65;;;5.10;;
12707;SDS011;6418;50.824;4.718;2022-07-22T09:38:51;11.38;;;5.25;;
12707;SDS011;6418;50.824;4.718;2022-07-22T09:41:19;9.50;;;5.45;;
12707;SDS011;6418;50.824;4.718;2022-07-22T09:43:46;9.02;;;5.00;;
12707;SDS011;6418;50.824;4.718;2022-07-22T09:46:15;13.18;;;5.10;;
12707;SDS011;6418;50.824;4.718;2022-07-22T09:48:42;12.20;;;5.13;;
12707;SDS011;6418;50.824;4.718;2022-07-22T09:51:09;11.02;;;5.00;;
12707;SDS011;6418;50.824;4.718;2022-07-22T09:53:36;17.30;;;5.43;;
12707;SDS011;6418;50.824;4.718;2022-07-22T09:56:05;11.75;;;5.25;;
12707;SDS011;6418;50.824;4.718;2022-07-22T09:58:32;8.80;;;5.22;;
12707;SDS011;6418;50.824;4.718;2022-07-22T10:01:02;9.82;;;5.05;;
12707;SDS011;6418;50.824;4.718;2022-07-22T10:03:31;12.20;;;5.05;;
12707;SDS011;6418;50.824;4.718;2022-07-22T10:05:59;16.33;;;5.13;;
12707;SDS011;6418;50.824;4.718;2022-07-22T10:08:27;10.13;;;4.68;;
12707;SDS011;6418;50.824;4.718;2022-07-22T10:10:58;11.15;;;5.32;;
12707;SDS011;6418;50.824;4.718;2022-07-22T10:13:28;9.43;;;5.10;;
12707;SDS011;6418;50.824;4.718;2022-07-22T10:15:56;11.70;;;5.03;;
12707;SDS011;6418;50.824;4.718;2022-07-22T10:18:23;9.27;;;4.45;;
12707;SDS011;6418;50.824;4.718;2022-07-22T10:21:00;10.68;;;4.85;;
12707;SDS011;6418;50.824;4.718;2022-07-22T10:23:27;9.05;;;4.80;;
12707;SDS011;6418;50.824;4.718;2022-07-22T10:25:55;8.02;;;4.70;;
12707;SDS011;6418;50.824;4.718;2022-07-22T10:28:24;10.95;;;5.00;;
12707;SDS011;6418;50.824;4.718;2022-07-22T10:30:54;11.60;;;4.63;;
12707;SDS011;6418;50.824;4.718;2022-07-22T10:33:43;8.38;;;4.60;;
12707;SDS011;6418;50.824;4.718;2022-07-22T10:36:13;8.85;;;4.50;;
12707;SDS011;6418;50.824;4.718;2022-07-22T10:38:44;12.13;;;4.78;;
12707;SDS011;6418;50.824;4.718;2022-07-22T10:41:30;8.65;;;4.70;;
12707;SDS011;6418;50.824;4.718;2022-07-22T10:44:00;10.27;;;4.57;;
12707;SDS011;6418;50.824;4.718;2022-07-22T10:49:18;10.45;;;4.85;;
12707;SDS011;6418;50.824;4.718;2022-07-22T10:57:43;11.23;;;4.40;;
12707;SDS011;6418;50.824;4.718;2022-07-22T11:00:10;11.10;;;4.85;;
12707;SDS011;6418;50.824;4.718;2022-07-22T11:02:38;9.52;;;4.80;;
12707;SDS011;6418;50.824;4.718;2022-07-22T11:05:06;8.30;;;4.28;;
12707;SDS011;6418;50.824;4.718;2022-07-22T11:07:34;10.57;;;5.00;;
12707;SDS011;6418;50.824;4.718;2022-07-22T11:10:10;11.32;;;5.07;;
12707;SDS011;6418;50.824;4.718;2022-07-22T11:12:38;11.57;;;4.85;;
12707;SDS011;6418;50.824;4.718;2022-07-22T11:15:06;8.18;;;4.43;;
12707;SDS011;6418;50.824;4.718;2022-07-22T11:17:34;9.98;;;4.55;;
12707;SDS011;6418;50.824;4.718;2022-07-22T11:20:03;9.57;;;4.68;;
12707;SDS011;6418;50.824;4.718;2022-07-22T11:22:32;6.13;;;4.28;;
12707;SDS011;6418;50.824;4.718;2022-07-22T11:25:00;11.35;;;4.80;;
12707;SDS011;6418;50.824;4.718;2022-07-22T11:27:29;9.82;;;4.95;;
12707;SDS011;6418;50.824;4.718;2022-07-22T11:29:56;9.48;;;4.53;;
12707;SDS011;6418;50.824;4.718;2022-07-22T11:32:24;9.38;;;4.45;;
12707;SDS011;6418;50.824;4.718;2022-07-22T11:34:53;8.98;;;4.70;;
12707;SDS011;6418;50.824;4.718;2022-07-22T11:37:22;10.18;;;4.50;;
12707;SDS011;6418;50.824;4.718;2022-07-22T11:39:50;9.23;;;4.60;;
12707;SDS011;6418;50.824;4.718;2022-07-22T11:42:17;7.88;;;4.70;;
12707;SDS011;6418;50.824;4.718;2022-07-22T11:44:44;14.68;;;4.97;;
12707;SDS011;6418;50.824;4.718;2022-07-22T11:47:11;9.00;;;4.97;;
12707;SDS011;6418;50.824;4.718;2022-07-22T11:49:38;10.13;;;4.80;;
12707;SDS011;6418;50.824;4.718;2022-07-22T11:52:06;9.13;;;4.80;;
12707;SDS011;6418;50.824;4.718;2022-07-22T11:54:38;12.15;;;5.28;;
12707;SDS011;6418;50.824;4.718;2022-07-22T11:57:05;10.10;;;5.10;;
12707;SDS011;6418;50.824;4.718;2022-07-22T11:59:33;9.93;;;4.85;;
12707;SDS011;6418;50.824;4.718;2022-07-22T12:02:01;7.95;;;4.63;;
12707;SDS011;6418;50.824;4.718;2022-07-22T12:04:29;11.13;;;4.90;;
12707;SDS011;6418;50.824;4.718;2022-07-22T12:06:58;15.88;;;4.78;;
12707;SDS011;6418;50.824;4.718;2022-07-22T12:09:28;8.32;;;4.53;;
12707;SDS011;6418;50.824;4.718;2022-07-22T12:11:59;10.93;;;5.20;;
12707;SDS011;6418;50.824;4.718;2022-07-22T12:14:26;9.48;;;4.28;;
12707;SDS011;6418;50.824;4.718;2022-07-22T12:16:55;9.30;;;4.75;;
12707;SDS011;6418;50.824;4.718;2022-07-22T12:19:25;9.85;;;4.72;;
12707;SDS011;6418;50.824;4.718;2022-07-22T12:21:55;9.73;;;4.57;;
12707;SDS011;6418;50.824;4.718;2022-07-22T12:24:26;9.27;;;4.60;;
12707;SDS011;6418;50.824;4.718;2022-07-22T12:26:56;11.23;;;5.22;;
12707;SDS011;6418;50.824;4.718;2022-07-22T12:29:27;10.02;;;4.82;;
12707;SDS011;6418;50.824;4.718;2022-07-22T12:31:57;8.63;;;4.38;;
12707;SDS011;6418;50.824;4.718;2022-07-22T12:34:29;10.35;;;4.90;;
12707;SDS011;6418;50.824;4.718;2022-07-22T12:37:01;10.23;;;4.93;;
12707;SDS011;6418;50.824;4.718;2022-07-22T12:39:38;12.50;;;4.82;;
12707;SDS011;6418;50.824;4.718;2022-07-22T12:42:15;9.15;;;4.53;;
12707;SDS011;6418;50.824;4.718;2022-07-22T12:44:51;8.35;;;4.78;;
12707;SDS011;6418;50.824;4.718;2022-07-22T12:52:59;10.80;;;4.85;;
12707;SDS011;6418;50.824;4.718;2022-07-22T12:55:29;9.02;;;4.80;;
12707;SDS011;6418;50.824;4.718;2022-07-22T12:57:56;10.25;;;4.85;;
12707;SDS011;6418;50.824;4.718;2022-07-22T13:00:26;8.27;;;4.68;;
12707;SDS011;6418;50.824;4.718;2022-07-22T13:02:54;11.63;;;5.32;;
12707;SDS011;6418;50.824;4.718;2022-07-22T13:05:21;11.13;;;5.18;;
12707;SDS011;6418;50.824;4.718;2022-07-22T13:07:49;7.90;;;4.80;;
12707;SDS011;6418;50.824;4.718;2022-07-22T13:10:18;9.43;;;4.95;;
12707;SDS011;6418;50.824;4.718;2022-07-22T13:12:45;10.70;;;4.93;;
12707;SDS011;6418;50.824;4.718;2022-07-22T13:15:12;9.13;;;4.68;;
12707;SDS011;6418;50.824;4.718;2022-07-22T13:17:41;9.68;;;4.82;;
12707;SDS011;6418;50.824;4.718;2022-07-22T13:20:09;11.27;;;4.78;;
12707;SDS011;6418;50.824;4.718;2022-07-22T13:22:38;10.43;;;4.95;;
12707;SDS011;6418;50.824;4.718;2022-07-22T13:25:06;9.65;;;4.70;;
12707;SDS011;6418;50.824;4.718;2022-07-22T13:27:33;9.75;;;4.68;;
12707;SDS011;6418;50.824;4.718;2022-07-22T13:30:00;9.63;;;4.60;;
12707;SDS011;6418;50.824;4.718;2022-07-22T13:32:27;9.57;;;4.88;;
12707;SDS011;6418;50.824;4.718;2022-07-22T13:34:56;7.65;;;4.53;;
12707;SDS011;6418;50.824;4.718;2022-07-22T13:37:23;9.43;;;5.07;;
12707;SDS011;6418;50.824;4.718;2022-07-22T13:39:50;8.68;;;4.60;;
12707;SDS011;6418;50.824;4.718;2022-07-22T13:42:17;7.60;;;4.30;;
12707;SDS011;6418;50.824;4.718;2022-07-22T13:44:44;10.60;;;5.10;;
12707;SDS011;6418;50.824;4.718;2022-07-22T13:47:12;11.02;;;4.60;;
12707;SDS011;6418;50.824;4.718;2022-07-22T13:49:39;8.23;;;4.40;;
12707;SDS011;6418;50.824;4.718;2022-07-22T13:52:07;9.52;;;4.60;;
12707;SDS011;6418;50.824;4.718;2022-07-22T13:54:34;8.88;;;4.55;;
12707;SDS011;6418;50.824;4.718;2022-07-22T13:57:02;10.68;;;4.57;;
12707;SDS011;6418;50.824;4.718;2022-07-22T13:59:30;8.88;;;4.38;;
12707;SDS011;6418;50.824;4.718;2022-07-22T14:01:58;9.02;;;4.53;;
12707;SDS011;6418;50.824;4.718;2022-07-22T14:04:26;8.73;;;4.50;;
12707;SDS011;6418;50.824;4.718;2022-07-22T14:06:53;7.40;;;4.25;;
12707;SDS011;6418;50.824;4.718;2022-07-22T14:09:21;9.98;;;4.40;;
12707;SDS011;6418;50.824;4.718;2022-07-22T14:11:48;7.47;;;4.40;;
12707;SDS011;6418;50.824;4.718;2022-07-22T14:14:15;9.00;;;4.32;;
12707;SDS011;6418;50.824;4.718;2022-07-22T14:16:42;10.40;;;4.63;;
12707;SDS011;6418;50.824;4.718;2022-07-22T14:19:10;10.15;;;4.85;;
12707;SDS011;6418;50.824;4.718;2022-07-22T14:21:38;9.57;;;4.75;;
12707;SDS011;6418;50.824;4.718;2022-07-22T14:24:07;8.07;;;4.30;;
12707;SDS011;6418;50.824;4.718;2022-07-22T14:26:36;8.73;;;4.60;;
12707;SDS011;6418;50.824;4.718;2022-07-22T14:29:04;9.10;;;4.38;;
12707;SDS011;6418;50.824;4.718;2022-07-22T14:31:32;7.78;;;4.60;;
12707;SDS011;6418;50.824;4.718;2022-07-22T14:33:59;7.90;;;4.63;;
12707;SDS011;6418;50.824;4.718;2022-07-22T14:36:26;6.50;;;3.95;;
12707;SDS011;6418;50.824;4.718;2022-07-22T14:38:53;7.90;;;4.70;;
12707;SDS011;6418;50.824;4.718;2022-07-22T14:41:20;5.45;;;4.03;;
12707;SDS011;6418;50.824;4.718;2022-07-22T14:43:49;10.73;;;4.78;;
12707;SDS011;6418;50.824;4.718;2022-07-22T14:46:16;9.88;;;4.90;;
12707;SDS011;6418;50.824;4.718;2022-07-22T14:48:43;10.02;;;4.88;;
12707;SDS011;6418;50.824;4.718;2022-07-22T14:51:11;9.52;;;4.60;;
12707;SDS011;6418;50.824;4.718;2022-07-22T14:53:38;10.95;;;4.60;;
12707;SDS011;6418;50.824;4.718;2022-07-22T14:56:05;9.75;;;5.10;;
12707;SDS011;6418;50.824;4.718;2022-07-22T14:58:31;11.13;;;5.03;;
12707;SDS011;6418;50.824;4.718;2022-07-22T15:01:00;9.27;;;4.80;;
12707;SDS011;6418;50.824;4.718;2022-07-22T15:03:27;11.45;;;5.00;;
12707;SDS011;6418;50.824;4.718;2022-07-22T15:05:53;11.40;;;5.13;;
12707;SDS011;6418;50.824;4.718;2022-07-22T15:08:20;9.77;;;4.88;;